createdAt,value
2023-02-06T00:04:30.504Z,4.51
2023-02-06T00:09:32.667Z,4.60
2023-02-06T00:14:34.840Z,4.82
2023-02-06T00:19:38.349Z,4.39
2023-02-06T00:24:41.336Z,4.46
2023-02-06T00:29:43.432Z,4.68
2023-02-06T00:34:45.607Z,4.52
2023-02-06T00:39:47.732Z,4.95
2023-02-06T00:44:49.823Z,4.85
2023-02-06T00:49:52.000Z,4.59
2023-02-06T00:54:54.122Z,4.60
2023-02-06T00:59:56.225Z,4.75
2023-02-06T01:04:58.322Z,4.76
2023-02-06T01:10:00.463Z,4.93
2023-02-06T01:15:02.979Z,5.06
2023-02-06T01:20:06.716Z,4.98
2023-02-06T01:25:09.045Z,4.85
2023-02-06T01:30:12.137Z,4.81
2023-02-06T01:35:14.326Z,4.71
2023-02-06T01:40:17.382Z,4.80
2023-02-06T01:45:22.147Z,4.73
2023-02-06T01:50:24.597Z,4.40
2023-02-06T01:55:26.871Z,4.62
2023-02-06T02:00:29.047Z,4.38
2023-02-06T02:05:33.569Z,4.32
2023-02-06T02:10:36.188Z,4.49
2023-02-06T02:16:03.167Z,4.62
2023-02-06T02:21:26.288Z,4.64
2023-02-06T02:26:49.977Z,4.52
2023-02-06T02:32:09.974Z,4.52
2023-02-06T02:37:26.243Z,3.94
2023-02-06T02:42:57.190Z,4.23
2023-02-06T02:48:08.654Z,4.48
2023-02-06T02:53:11.742Z,4.21
2023-02-06T02:58:19.818Z,4.26
2023-02-06T03:03:25.505Z,4.36
2023-02-06T03:08:46.482Z,4.19
2023-02-06T03:13:55.975Z,4.09
2023-02-06T03:19:14.193Z,4.04
2023-02-06T03:24:21.724Z,4.36
2023-02-06T03:29:25.379Z,4.25
2023-02-06T03:35:02.314Z,4.09
2023-02-06T03:40:06.552Z,3.94
2023-02-06T03:45:11.395Z,3.91
2023-02-06T03:50:15.508Z,4.00
2023-02-06T03:55:22.754Z,3.74
2023-02-06T04:00:26.337Z,3.96
2023-02-06T04:05:28.978Z,3.55
2023-02-06T04:10:31.341Z,3.77
2023-02-06T04:15:33.674Z,3.70
2023-02-06T04:20:41.145Z,4.09
2023-02-06T04:25:43.220Z,4.00
2023-02-06T04:30:45.387Z,3.65
2023-02-06T04:35:48.935Z,3.78
2023-02-06T04:40:51.049Z,3.37
2023-02-06T04:45:53.156Z,2.74
2023-02-06T04:50:55.234Z,2.95
2023-02-06T04:56:08.918Z,3.21
2023-02-06T05:01:11.169Z,3.04
2023-02-06T05:06:14.008Z,3.38
2023-02-06T05:11:16.171Z,3.36
2023-02-06T05:16:19.232Z,3.44
2023-02-06T05:21:21.893Z,3.57
2023-02-06T05:26:24.226Z,3.82
2023-02-06T05:31:26.543Z,3.71
2023-02-06T05:36:29.598Z,3.74
2023-02-06T05:41:31.911Z,3.65
2023-02-06T05:46:34.003Z,3.75
2023-02-06T05:51:36.277Z,3.58
2023-02-06T05:56:38.471Z,3.54
2023-02-06T06:01:40.597Z,3.89
2023-02-06T06:06:42.676Z,3.76
2023-02-06T06:11:44.808Z,3.76
2023-02-06T06:16:46.950Z,4.00
2023-02-06T06:21:49.148Z,3.38
2023-02-06T06:26:51.397Z,3.44
2023-02-06T06:31:54.139Z,3.87
2023-02-06T06:36:56.407Z,4.21
2023-02-06T06:41:58.555Z,4.19
2023-02-06T06:47:00.645Z,3.97
2023-02-06T06:52:03.640Z,3.98
2023-02-06T06:57:06.626Z,4.09
2023-02-06T07:02:10.332Z,4.30
2023-02-06T07:07:12.430Z,4.39
2023-02-06T07:12:14.597Z,4.37
2023-02-06T07:17:16.718Z,4.60
2023-02-06T07:22:21.868Z,4.24
2023-02-06T07:27:24.072Z,4.47
2023-02-06T07:32:27.361Z,4.34
2023-02-06T07:37:29.498Z,4.28
2023-02-06T07:42:33.746Z,4.54
2023-02-06T07:47:35.837Z,4.51
2023-02-06T07:52:38.153Z,4.23
2023-02-06T07:57:40.237Z,4.65
2023-02-06T08:02:42.760Z,4.90
2023-02-06T08:07:45.000Z,5.04
2023-02-06T08:12:47.361Z,4.81
2023-02-06T08:17:49.646Z,5.17
2023-02-06T08:22:51.891Z,5.40
2023-02-06T08:27:57.337Z,5.38
2023-02-06T08:32:59.643Z,5.08
2023-02-06T08:38:01.928Z,5.33
2023-02-06T08:43:04.199Z,5.00
2023-02-06T08:48:06.627Z,5.03
2023-02-06T08:53:08.936Z,4.87
2023-02-06T08:58:11.147Z,4.68
2023-02-06T09:03:13.318Z,4.94
2023-02-06T09:08:15.814Z,5.21
2023-02-06T09:13:18.018Z,5.30
2023-02-06T09:18:20.653Z,4.87
2023-02-06T09:23:22.836Z,5.59
2023-02-06T09:28:25.071Z,6.07
2023-02-06T09:33:27.677Z,5.99
2023-02-06T09:38:29.941Z,5.84
2023-02-06T09:43:34.026Z,6.29
2023-02-06T09:48:39.975Z,6.09
2023-02-06T09:53:48.141Z,6.31
2023-02-06T09:59:06.157Z,6.63
2023-02-06T10:04:33.820Z,6.50
2023-02-06T10:09:52.276Z,6.33
2023-02-06T10:15:07.737Z,6.60
2023-02-06T10:20:22.936Z,6.62
2023-02-06T10:25:37.416Z,6.75
2023-02-06T10:31:03.840Z,7.38
2023-02-06T10:36:24.501Z,7.57
2023-02-06T10:42:00.965Z,7.40
2023-02-06T10:47:11.450Z,7.54
2023-02-06T10:52:13.454Z,7.06
2023-02-06T10:57:20.733Z,6.82
2023-02-06T11:02:22.896Z,7.28
2023-02-06T11:07:38.607Z,7.39
2023-02-06T11:13:11.421Z,7.72
2023-02-06T11:18:19.613Z,7.41
2023-02-06T11:23:27.541Z,7.94
2023-02-06T11:28:30.877Z,7.87
2023-02-06T11:33:42.174Z,7.67
2023-02-06T11:38:54.754Z,8.08
2023-02-06T11:44:02.951Z,8.49
2023-02-06T11:49:20.258Z,8.61
2023-02-06T11:54:29.298Z,8.91
2023-02-06T11:59:34.889Z,8.91
2023-02-06T12:04:41.715Z,9.24
2023-02-06T12:09:44.033Z,9.37
2023-02-06T12:14:49.682Z,9.45
2023-02-06T12:20:03.247Z,9.21
2023-02-06T12:25:05.878Z,9.20
2023-02-06T12:30:27.866Z,9.41
2023-02-06T12:35:44.161Z,9.53
2023-02-06T12:40:49.337Z,10.10
2023-02-06T12:46:02.862Z,9.88
2023-02-06T12:51:29.117Z,9.81
2023-02-06T12:56:49.202Z,9.80
2023-02-06T13:01:56.818Z,9.84
2023-02-06T13:07:06.826Z,9.96
2023-02-06T13:12:16.301Z,9.95
2023-02-06T13:17:27.206Z,10.13
2023-02-06T13:22:40.312Z,9.90
2023-02-06T13:27:42.588Z,9.99
2023-02-06T13:32:48.678Z,10.42
2023-02-06T13:37:52.102Z,10.50
2023-02-06T13:43:14.088Z,10.86
2023-02-06T13:48:47.833Z,10.60
2023-02-06T13:54:01.864Z,10.76
2023-02-06T13:59:24.243Z,10.48
2023-02-06T14:04:30.320Z,10.87
2023-02-06T14:09:50.320Z,11.13
2023-02-06T14:15:18.945Z,11.09
2023-02-06T14:20:47.712Z,11.05
2023-02-06T14:26:01.179Z,11.29
2023-02-06T14:31:13.577Z,10.52
2023-02-06T14:36:41.322Z,10.67
2023-02-06T14:41:43.692Z,10.63
2023-02-06T14:46:46.385Z,10.60
2023-02-06T14:51:51.662Z,10.46
2023-02-06T14:56:59.288Z,10.33
2023-02-06T15:02:14.095Z,10.64
2023-02-06T15:07:25.474Z,10.84
2023-02-06T15:12:29.536Z,10.81
2023-02-06T15:17:32.597Z,11.00
2023-02-06T15:22:36.157Z,10.60
2023-02-06T15:27:39.196Z,9.43
2023-02-06T15:32:41.531Z,9.50
2023-02-06T15:37:43.838Z,9.16
2023-02-06T15:42:50.545Z,8.93
2023-02-06T15:47:54.951Z,8.39
2023-02-06T15:52:57.280Z,7.70
2023-02-06T15:58:02.394Z,8.00
2023-02-06T16:03:08.710Z,7.91
2023-02-06T16:08:23.519Z,7.68
2023-02-06T16:13:28.660Z,7.42
2023-02-06T16:18:33.975Z,7.29
2023-02-06T16:23:51.704Z,7.30
2023-02-06T16:29:27.988Z,6.76
2023-02-06T16:34:40.965Z,6.91
2023-02-06T16:39:44.448Z,6.89
2023-02-06T16:44:50.088Z,7.02
2023-02-06T16:49:52.501Z,6.78
2023-02-06T16:55:02.085Z,6.57
2023-02-06T17:00:25.685Z,6.22
2023-02-06T17:05:29.384Z,6.33
2023-02-06T17:10:31.588Z,6.59
2023-02-06T17:15:33.935Z,6.61
2023-02-06T17:20:39.486Z,6.63
2023-02-06T17:25:44.300Z,6.64
2023-02-06T17:30:46.913Z,6.41
2023-02-06T17:35:49.506Z,6.50
2023-02-06T17:40:51.843Z,6.39
2023-02-06T17:45:53.963Z,6.53
2023-02-06T17:50:56.075Z,6.63
2023-02-06T17:55:58.218Z,6.40
2023-02-06T18:01:00.467Z,6.25
2023-02-06T18:06:03.280Z,6.60
2023-02-06T18:11:13.661Z,6.63
2023-02-06T18:16:21.535Z,6.74
2023-02-06T18:21:24.963Z,6.80
2023-02-06T18:26:28.011Z,6.24
2023-02-06T18:31:35.521Z,6.38
2023-02-06T18:36:38.462Z,6.30
2023-02-06T18:41:58.821Z,6.32
2023-02-06T18:47:00.914Z,5.72
2023-02-06T18:52:04.001Z,5.74
2023-02-06T18:57:06.703Z,5.49
2023-02-06T19:02:10.685Z,5.45
2023-02-06T19:07:34.508Z,5.65
2023-02-06T19:12:39.204Z,5.75
2023-02-06T19:17:42.163Z,5.80
2023-02-06T19:22:44.344Z,5.62
2023-02-06T19:27:46.554Z,5.49
2023-02-06T19:32:51.763Z,5.34
2023-02-06T19:37:53.832Z,5.31
2023-02-06T19:42:55.998Z,5.28
2023-02-06T19:47:58.434Z,5.28
2023-02-06T19:53:00.827Z,5.12
2023-02-06T19:58:03.275Z,5.30
2023-02-06T20:03:05.813Z,5.04
2023-02-06T20:08:08.004Z,5.00
2023-02-06T20:13:10.486Z,5.04
2023-02-06T20:18:12.987Z,4.94
2023-02-06T20:23:15.066Z,5.10
2023-02-06T20:28:17.216Z,5.00
2023-02-06T20:33:19.415Z,4.44
2023-02-06T20:38:21.570Z,4.40
2023-02-06T20:43:23.716Z,4.49
2023-02-06T20:48:26.114Z,4.56
2023-02-06T20:53:28.343Z,4.87
2023-02-06T20:58:30.673Z,4.81
2023-02-06T21:03:32.827Z,4.58
2023-02-06T21:08:35.146Z,4.90
2023-02-06T21:13:39.617Z,4.88
2023-02-06T21:18:42.929Z,4.54
2023-02-06T21:23:46.629Z,4.58
2023-02-06T21:28:48.800Z,4.41
2023-02-06T21:33:52.284Z,4.50
2023-02-06T21:38:54.465Z,4.43
2023-02-06T21:43:56.742Z,4.55
2023-02-06T21:48:58.910Z,4.46
2023-02-06T21:54:01.150Z,4.52
2023-02-06T21:59:03.303Z,4.59
2023-02-06T22:04:05.624Z,4.66
2023-02-06T22:09:10.043Z,4.59
2023-02-06T22:14:16.669Z,4.40
2023-02-06T22:19:18.931Z,4.28
2023-02-06T22:24:21.707Z,4.51
2023-02-06T22:29:24.137Z,4.34
2023-02-06T22:34:26.267Z,4.46
2023-02-06T22:39:28.410Z,4.71
2023-02-06T22:44:30.478Z,4.42
2023-02-06T22:49:32.584Z,4.14
2023-02-06T22:54:34.732Z,4.21
2023-02-06T22:59:36.812Z,4.20
2023-02-06T23:04:40.995Z,4.43
2023-02-06T23:09:43.209Z,4.43
2023-02-06T23:14:45.453Z,4.32
2023-02-06T23:19:47.587Z,4.31
2023-02-06T23:24:51.978Z,4.18
2023-02-06T23:29:54.135Z,4.16
2023-02-06T23:34:56.786Z,4.39
2023-02-06T23:39:59.174Z,4.56
2023-02-06T23:45:02.025Z,4.52
2023-02-06T23:50:05.715Z,4.65
2023-02-06T23:55:08.074Z,4.27
